Time;durP1;ratioP1;P1;durP2;ratioP2;P2;SDS_P1;SDS_P2;PMS_P1;PMS_P2;Temp;Humidity;BMP_temperature;BMP_pressure;BME280_temperature;BME280_humidity;BME280_pressure;Samples;Min_cycle;Max_cycle;Signal;HPM_P1;HPM_P2
2022/02/15 00:01:40;;;;;;;3.20;3.10;;;;;;;5.77;85.33;100210.16;6025115;23;20059;-71
2022/02/15 00:04:08;;;;;;;4.03;3.85;;;;;;;6.08;86.39;100256.69;6024789;23;20025;-72
2022/02/15 00:06:35;;;;;;;3.53;3.42;;;;;;;5.60;85.30;100174.41;6006416;23;20098;-73
2022/02/15 00:09:02;;;;;;;3.60;3.50;;;;;;;4.41;85.00;99975.34;6035234;23;20379;-72
2022/02/15 00:11:28;;;;;;;3.50;3.40;;;;;;;5.91;85.94;100220.00;5996592;23;20086;-71
2022/02/15 00:13:55;;;;;;;3.40;3.30;;;;;;;4.67;85.64;100017.66;6041135;23;20670;-72
2022/02/15 00:16:21;;;;;;;4.25;4.05;;;;;;;5.85;85.73;100210.69;6034779;23;20017;-71
2022/02/15 00:18:48;;;;;;;3.40;3.30;;;;;;;6.23;86.34;100257.81;5997727;23;20018;-73
2022/02/15 00:21:14;;;;;;;4.78;4.57;;;;;;;5.14;85.09;100090.34;6032167;23;20011;-73
2022/02/15 00:23:40;;;;;;;3.38;3.28;;;;;;;5.16;85.42;100091.97;5982618;23;20630;-74
2022/02/15 00:26:07;;;;;;;4.97;4.78;;;;;;;6.10;86.59;100257.47;6001423;23;20056;-72
2022/02/15 00:28:33;;;;;;;3.30;3.20;;;;;;;4.06;86.39;99916.94;6011287;23;20740;-71
2022/02/15 00:31:00;;;;;;;3.70;3.60;;;;;;;6.13;86.05;100246.06;6039487;23;20046;-72
2022/02/15 00:33:26;;;;;;;3.30;3.20;;;;;;;6.09;87.16;100258.38;6020019;23;20094;-72
2022/02/15 00:35:54;;;;;;;3.53;3.40;;;;;;;5.55;86.08;100173.72;6003546;23;20015;-72
2022/02/15 00:38:20;;;;;;;3.92;3.75;;;;;;;6.13;86.38;100257.34;6021880;23;20546;-72
2022/02/15 00:40:46;;;;;;;3.33;3.22;;;;;;;6.14;86.54;100258.19;6030631;23;20093;-71
2022/02/15 00:43:13;;;;;;;4.70;4.50;;;;;;;6.02;86.41;100232.66;6011884;23;20703;-72
2022/02/15 00:45:39;;;;;;;3.47;3.38;;;;;;;5.40;86.49;100133.53;5997335;23;20083;-72
2022/02/15 00:48:07;;;;;;;4.45;4.25;;;;;;;6.21;86.89;100272.66;6026518;23;20050;-71
2022/02/15 00:50:34;;;;;;;3.30;3.20;;;;;;;5.45;86.28;100148.97;6020844;23;20030;-71
2022/02/15 00:53:00;;;;;;;3.30;3.20;;;;;;;5.29;85.97;100123.56;6004103;23;20623;-72
2022/02/15 00:55:26;;;;;;;3.40;3.30;;;;;;;5.97;86.37;100246.72;6014771;23;20011;-71
2022/02/15 00:57:53;;;;;;;3.92;3.75;;;;;;;5.22;86.41;100135.13;5989199;23;20046;-72
2022/02/15 01:00:22;;;;;;;4.22;4.03;;;;;;;5.56;87.47;100193.66;6024540;23;20528;-71
2022/02/15 01:02:48;;;;;;;3.30;3.20;;;;;;;4.87;87.27;100082.72;6002390;23;20683;-71
2022/02/15 01:05:14;;;;;;;4.68;4.47;;;;;;;6.11;87.89;100289.56;5983091;23;20038;-72
2022/02/15 01:07:41;;;;;;;3.15;3.05;;;;;;;5.41;87.08;100174.25;5997923;23;20023;-71
2022/02/15 01:10:08;;;;;;;4.65;4.45;;;;;;;5.40;87.17;100175.19;6020732;23;20023;-72
2022/02/15 01:12:35;;;;;;;3.40;3.30;;;;;;;6.16;87.07;100290.25;6020681;23;20014;-71
2022/02/15 01:15:03;;;;;;;3.65;3.53;;;;;;;5.65;87.38;100219.28;6001484;23;20086;-71
2022/02/15 01:17:29;;;;;;;3.20;3.10;;;;;;;5.53;87.06;100219.78;6033108;23;20039;-72
2022/02/15 01:19:55;;;;;;;3.33;3.22;;;;;;;5.65;87.50;100221.06;6005866;23;20090;-71
2022/02/15 01:22:22;;;;;;;4.65;4.22;;;;;;;5.58;87.68;100207.44;6013683;23;20516;-72
2022/02/15 01:24:48;;;;;;;3.40;3.30;;;;;;;6.08;87.33;100294.91;6002282;23;20015;-72
2022/02/15 01:27:15;;;;;;;4.75;4.55;;;;;;;5.63;87.77;100233.28;6030482;23;20038;-71
2022/02/15 01:29:41;;;;;;;3.30;3.20;;;;;;;5.88;88.17;100270.47;6028616;23;20440;-72
2022/02/15 01:32:08;;;;;;;4.88;4.68;;;;;;;5.87;87.72;100292.19;5996375;23;20482;-72
2022/02/15 01:34:34;;;;;;;3.30;3.20;;;;;;;6.02;88.40;100296.00;5979998;23;20013;-73
2022/02/15 01:37:00;;;;;;;3.47;3.35;;;;;;;5.72;87.60;100243.34;6032637;23;20023;-71
2022/02/15 01:39:27;;;;;;;3.70;3.60;;;;;;;4.81;87.81;100101.13;5978898;23;20153;-72
2022/02/15 01:41:55;;;;;;;3.50;3.40;;;;;;;6.07;87.94;100306.22;6003195;23;20021;-70
2022/02/15 01:44:22;;;;;;;3.40;3.30;;;;;;;5.40;87.64;100190.78;6030967;23;20166;-72
2022/02/15 01:46:48;;;;;;;3.55;3.45;;;;;;;5.80;87.78;100256.91;5993857;23;20014;-71
2022/02/15 01:49:15;;;;;;;4.78;4.57;;;;;;;6.13;87.14;100313.81;6023476;23;20049;-72
2022/02/15 01:51:41;;;;;;;3.40;3.30;;;;;;;4.78;86.48;100094.31;5981523;23;20014;-72
2022/02/15 01:54:08;;;;;;;3.67;3.58;;;;;;;6.16;86.94;100317.13;6027800;23;20034;-71
2022/02/15 01:56:34;;;;;;;3.50;3.40;;;;;;;5.82;86.32;100262.91;6004044;23;20618;-71
2022/02/15 01:59:02;;;;;;;3.50;3.40;;;;;;;5.97;86.61;100304.00;6016999;23;20436;-72
2022/02/15 02:01:29;;;;;;;3.67;3.47;;;;;;;5.60;86.93;100234.25;6030818;23;20038;-72
2022/02/15 02:03:55;;;;;;;3.40;3.30;;;;;;;5.58;87.25;100229.09;5977714;23;20414;-72
2022/02/15 02:06:22;;;;;;;3.60;3.50;;;;;;;6.11;86.51;100313.84;6035465;23;20031;-72
2022/02/15 02:08:48;;;;;;;3.30;3.20;;;;;;;5.55;87.45;100226.66;6015136;23;20100;-71
2022/02/15 02:11:15;;;;;;;3.50;3.40;;;;;;;5.86;87.51;100280.09;6034103;23;20472;-72
2022/02/15 02:13:41;;;;;;;3.40;3.30;;;;;;;5.53;87.06;100241.47;5971210;23;20023;-72
2022/02/15 02:16:08;;;;;;;4.63;4.43;;;;;;;5.96;87.73;100320.53;6029633;23;20019;-72
2022/02/15 02:18:34;;;;;;;3.10;3.00;;;;;;;5.86;87.16;100302.69;5976983;23;20026;-72
2022/02/15 02:21:04;;;;;;;3.60;3.50;;;;;;;5.92;86.74;100320.69;6032771;23;20023;-72
2022/02/15 02:23:31;;;;;;;3.30;3.20;;;;;;;5.48;86.75;100279.81;6022108;23;20092;-72
2022/02/15 02:25:58;;;;;;;3.50;3.40;;;;;;;5.75;87.96;100323.94;6003803;23;20031;-72
2022/02/15 02:28:24;;;;;;;3.30;3.20;;;;;;;5.65;87.52;100327.78;6028330;23;20022;-72
2022/02/15 02:30:51;;;;;;;3.33;3.22;;;;;;;5.23;87.68;100271.22;5996024;23;20045;-73
2022/02/15 02:33:17;;;;;;;4.90;4.70;;;;;;;5.50;88.63;100330.06;6018444;23;20029;-71
2022/02/15 02:35:44;;;;;;;3.20;3.10;;;;;;;5.47;89.96;100329.31;6002343;23;20032;-72
2022/02/15 02:38:10;;;;;;;4.80;4.60;;;;;;;5.36;90.55;100312.34;6022495;23;20119;-72
2022/02/15 02:40:37;;;;;;;3.45;3.35;;;;;;;5.22;89.77;100295.56;6001003;23;20025;-72
2022/02/15 02:43:03;;;;;;;4.00;3.83;;;;;;;4.76;88.97;100215.69;6030304;23;20045;-72
2022/02/15 02:45:30;;;;;;;4.13;3.92;;;;;;;5.44;88.92;100317.28;6029324;23;20021;-72
2022/02/15 02:47:56;;;;;;;3.30;3.20;;;;;;;5.73;89.24;100355.25;6023788;23;20031;-72
2022/02/15 02:50:24;;;;;;;4.18;3.97;;;;;;;5.77;88.74;100355.97;6003927;23;20359;-72
2022/02/15 02:52:51;;;;;;;3.47;3.38;;;;;;;5.79;88.53;100354.16;6024533;23;20416;-72
2022/02/15 02:55:18;;;;;;;4.57;4.38;;;;;;;5.25;88.51;100253.81;6034888;23;20021;-72
2022/02/15 02:57:44;;;;;;;3.25;3.15;;;;;;;5.84;88.49;100354.00;6024737;23;20070;-72
2022/02/15 03:00:14;;;;;;;5.55;5.25;;;;;;;5.84;87.93;100360.03;6005243;23;20094;-72
2022/02/15 03:02:40;;;;;;;3.30;3.20;;;;;;;5.93;88.67;100358.84;6036264;23;20100;-71
2022/02/15 03:05:07;;;;;;;4.63;4.43;;;;;;;5.93;87.36;100364.91;6020838;23;20020;-71
2022/02/15 03:07:34;;;;;;;3.50;3.40;;;;;;;5.55;88.16;100309.94;6004281;23;20382;-71
2022/02/15 03:10:01;;;;;;;3.38;3.28;;;;;;;5.85;88.73;100364.34;6034373;23;20032;-71
2022/02/15 03:12:27;;;;;;;3.40;3.30;;;;;;;5.56;87.76;100311.63;6020187;23;20783;-72
2022/02/15 03:14:54;;;;;;;3.25;3.15;;;;;;;5.63;88.18;100346.06;6000143;23;20019;-72
2022/02/15 03:17:20;;;;;;;3.35;3.25;;;;;;;5.33;89.05;100309.00;6024424;23;20863;-71
2022/02/15 03:19:47;;;;;;;3.40;3.30;;;;;;;5.80;89.54;100374.09;6028876;23;20353;-72
2022/02/15 03:22:13;;;;;;;4.60;4.40;;;;;;;5.65;88.98;100351.22;6044356;23;20085;-72
2022/02/15 03:24:39;;;;;;;3.22;3.13;;;;;;;5.81;88.79;100378.38;6039118;23;20025;-72
2022/02/15 03:27:06;;;;;;;4.38;4.18;;;;;;;5.85;88.83;100372.13;5990292;23;20019;-72
2022/02/15 03:29:32;;;;;;;3.30;3.20;;;;;;;4.80;88.46;100201.69;6013156;23;20499;-72
2022/02/15 03:31:59;;;;;;;3.40;3.30;;;;;;;5.50;89.25;100321.41;6025170;23;20480;-72
2022/02/15 03:34:25;;;;;;;3.42;3.25;;;;;;;5.82;88.64;100380.09;6014736;23;20029;-71
2022/02/15 03:36:52;;;;;;;3.25;3.15;;;;;;;5.41;89.15;100325.19;5981201;23;20023;-71
2022/02/15 03:39:20;;;;;;;4.00;3.80;;;;;;;5.75;89.57;100386.41;6033398;23;20014;-71
2022/02/15 03:44:32;;;;;;;3.65;3.45;;;;;;;5.30;89.87;100354.22;6043242;23;20049;-73
2022/02/15 03:46:58;;;;;;;3.30;3.20;;;;;;;5.46;90.77;100366.69;6018916;23;20022;-72
2022/02/15 03:49:25;;;;;;;3.30;3.20;;;;;;;5.67;90.60;100406.69;6032292;23;20101;-72
2022/02/15 03:51:51;;;;;;;3.30;3.20;;;;;;;4.61;91.17;100231.84;6007598;23;20056;-72
2022/02/15 03:54:17;;;;;;;4.95;4.75;;;;;;;5.65;90.40;100413.69;6027512;23;20444;-72
2022/02/15 03:56:44;;;;;;;3.10;3.00;;;;;;;4.99;91.16;100299.81;6026769;23;20086;-72
2022/02/15 03:59:10;;;;;;;3.10;3.00;;;;;;;4.92;90.79;100311.34;6042255;23;20598;-71
2022/02/15 04:01:38;;;;;;;3.40;3.30;;;;;;;5.62;90.51;100416.44;6035219;23;20361;-70
2022/02/15 04:04:05;;;;;;;4.45;4.25;;;;;;;5.35;91.19;100403.47;6001381;23;20019;-71
2022/02/15 04:06:32;;;;;;;3.30;3.20;;;;;;;5.42;91.88;100431.00;6025254;23;20027;-71
2022/02/15 04:08:59;;;;;;;3.38;3.28;;;;;;;4.86;91.91;100346.22;5991191;23;20489;-71
2022/02/15 04:11:25;;;;;;;3.30;3.20;;;;;;;4.31;92.59;100281.38;6036443;23;20034;-72
2022/02/15 04:13:52;;;;;;;3.25;3.15;;;;;;;4.54;93.19;100327.34;6004050;23;20023;-71
2022/02/15 04:16:19;;;;;;;4.30;4.10;;;;;;;4.73;93.41;100373.53;6035367;23;20288;-72
2022/02/15 04:18:47;;;;;;;3.00;2.90;;;;;;;4.68;94.27;100370.25;6042652;23;20021;-72
2022/02/15 04:21:15;;;;;;;4.75;4.55;;;;;;;5.07;93.85;100434.78;6029255;23;20026;-71
2022/02/15 04:23:42;;;;;;;3.40;3.30;;;;;;;4.70;94.47;100408.28;6041894;23;20031;-72
2022/02/15 04:26:08;;;;;;;4.82;4.63;;;;;;;4.21;94.58;100344.91;6026375;23;20022;-72
2022/02/15 04:28:35;;;;;;;3.10;3.00;;;;;;;4.97;94.23;100455.94;6008429;23;20023;-72
2022/02/15 04:31:01;;;;;;;3.33;3.22;;;;;;;4.94;94.52;100453.41;6035439;23;20049;-72
2022/02/15 04:33:28;;;;;;;3.20;3.10;;;;;;;4.28;95.39;100341.19;6026977;23;20085;-72
2022/02/15 04:35:54;;;;;;;3.35;3.25;;;;;;;3.76;94.79;100259.75;6001259;23;20535;-72
2022/02/15 04:38:21;;;;;;;3.10;3.00;;;;;;;5.02;95.80;100462.72;6009360;23;20035;-72
2022/02/15 04:40:47;;;;;;;3.40;3.30;;;;;;;4.86;95.79;100441.56;6003084;23;20042;-72
2022/02/15 04:43:13;;;;;;;3.40;3.30;;;;;;;4.15;95.38;100326.88;6047929;23;20032;-72
2022/02/15 04:45:40;;;;;;;3.10;3.00;;;;;;;5.08;95.68;100476.38;6037453;23;20015;-72
2022/02/15 04:48:06;;;;;;;5.35;5.15;;;;;;;5.11;95.70;100473.69;5999436;23;20055;-73
2022/02/15 04:50:33;;;;;;;3.10;3.00;;;;;;;5.14;95.98;100480.53;6023962;23;20621;-72
2022/02/15 04:52:59;;;;;;;3.22;3.13;;;;;;;5.03;95.63;100461.81;6004173;23;20043;-72
2022/02/15 04:55:26;;;;;;;3.10;3.00;;;;;;;5.03;94.90;100454.00;6023682;23;20019;-73
2022/02/15 04:57:52;;;;;;;3.30;3.20;;;;;;;4.58;94.77;100390.47;6001299;23;20543;-73
2022/02/15 05:00:19;;;;;;;4.20;4.00;;;;;;;4.16;94.74;100308.66;6020020;23;20030;-72
2022/02/15 05:02:45;;;;;;;3.20;3.10;;;;;;;5.31;95.54;100490.34;6000685;23;20031;-72
2022/02/15 05:05:12;;;;;;;4.68;4.47;;;;;;;5.35;94.21;100497.16;6027903;23;20022;-72
2022/02/15 05:07:38;;;;;;;3.20;3.10;;;;;;;5.36;95.11;100493.66;6012521;23;20019;-71
2022/02/15 05:10:05;;;;;;;4.53;4.32;;;;;;;5.31;95.12;100501.63;6030025;23;20039;-72
2022/02/15 05:12:33;;;;;;;3.20;3.10;;;;;;;4.25;95.17;100327.44;5980977;23;20042;-72
2022/02/15 05:14:59;;;;;;;3.33;3.22;;;;;;;5.26;94.34;100500.09;6029250;23;20094;-72
2022/02/15 05:17:27;;;;;;;3.42;3.33;;;;;;;4.78;95.38;100434.88;6041115;23;20405;-72
2022/02/15 05:19:54;;;;;;;3.45;3.35;;;;;;;4.98;95.19;100455.00;6026933;23;20021;-71
2022/02/15 05:22:20;;;;;;;3.38;3.28;;;;;;;5.30;95.01;100502.53;6044796;23;20082;-72
2022/02/15 05:24:46;;;;;;;3.60;3.40;;;;;;;4.17;94.85;100328.56;6004498;23;20049;-72
2022/02/15 05:27:13;;;;;;;4.82;4.63;;;;;;;4.98;95.29;100459.38;6029097;23;20040;-72
2022/02/15 05:29:39;;;;;;;3.22;3.13;;;;;;;5.31;95.83;100516.38;5992700;23;20472;-72
2022/02/15 05:32:06;;;;;;;5.40;5.00;;;;;;;4.63;95.46;100404.19;6027297;23;20108;-72
2022/02/15 05:34:32;;;;;;;3.05;2.95;;;;;;;4.99;94.35;100479.25;6027469;23;20022;-72
2022/02/15 05:36:59;;;;;;;3.50;3.30;;;;;;;4.95;94.69;100477.66;5978020;23;20031;-71
2022/02/15 05:39:25;;;;;;;3.42;3.33;;;;;;;4.69;94.63;100442.97;6034313;23;20070;-72
2022/02/15 05:41:51;;;;;;;3.30;3.20;;;;;;;5.08;95.94;100531.00;6008582;23;20022;-71
2022/02/15 05:44:18;;;;;;;4.20;4.00;;;;;;;5.04;95.78;100533.75;6039491;23;20472;-72
2022/02/15 05:46:44;;;;;;;3.25;3.15;;;;;;;4.65;96.40;100505.47;5985857;23;20422;-72
2022/02/15 05:49:11;;;;;;;6.55;6.25;;;;;;;4.34;96.92;100420.69;6028434;23;20030;-72
2022/02/15 05:51:37;;;;;;;3.13;3.03;;;;;;;4.45;96.90;100443.72;6020875;23;20063;-71
2022/02/15 05:54:04;;;;;;;3.97;3.80;;;;;;;5.02;96.50;100556.34;6019322;23;20019;-71
2022/02/15 05:56:32;;;;;;;3.10;3.00;;;;;;;4.63;96.48;100492.56;6022354;23;20145;-72
2022/02/15 05:58:58;;;;;;;3.22;3.13;;;;;;;5.03;96.48;100538.06;5971890;23;20088;-71
2022/02/15 06:01:25;;;;;;;3.83;3.30;;;;;;;4.50;96.45;100458.28;6017003;23;20030;-72
2022/02/15 06:06:38;;;;;;;3.20;3.10;;;;;;;4.06;96.42;100387.75;6013253;23;20023;-71
2022/02/15 06:09:05;;;;;;;3.90;3.75;;;;;;;4.73;95.33;100498.28;6010153;23;20028;-71
2022/02/15 06:11:31;;;;;;;3.10;3.00;;;;;;;4.61;94.03;100470.97;6032352;23;20023;-71
2022/02/15 06:13:58;;;;;;;3.60;3.40;;;;;;;4.77;95.27;100513.78;6026359;23;20026;-71
2022/02/15 06:16:25;;;;;;;3.30;3.20;;;;;;;4.94;94.71;100548.78;5994911;23;20503;-71
2022/02/15 06:18:56;;;;;;;3.25;3.15;;;;;;;4.72;94.94;100533.00;6030706;23;20066;-71
2022/02/15 06:21:24;;;;;;;3.20;3.10;;;;;;;4.47;95.22;100481.78;6007360;23;20073;-71
2022/02/15 06:23:50;;;;;;;3.38;3.28;;;;;;;4.59;95.22;100506.50;6036135;23;20018;-71
2022/02/15 06:26:17;;;;;;;3.20;3.10;;;;;;;4.93;95.53;100566.16;5997530;23;20019;-71
2022/02/15 06:28:43;;;;;;;2.97;2.88;;;;;;;4.42;95.17;100511.41;6027614;23;20048;-72
2022/02/15 06:31:11;;;;;;;3.20;3.10;;;;;;;4.98;94.64;100581.59;6034147;23;20113;-72
2022/02/15 06:33:37;;;;;;;3.35;3.25;;;;;;;4.37;95.42;100482.94;6011137;23;20523;-71
2022/02/15 06:36:05;;;;;;;3.20;3.10;;;;;;;4.65;95.47;100527.16;6040172;23;20054;-71
2022/02/15 06:38:31;;;;;;;3.17;3.08;;;;;;;4.42;95.18;100495.81;6014883;23;20101;-71
2022/02/15 06:40:58;;;;;;;3.35;3.20;;;;;;;4.77;95.68;100555.38;6015936;23;20372;-72
2022/02/15 06:43:24;;;;;;;4.20;3.90;;;;;;;4.00;94.93;100439.88;6020226;23;20023;-71
2022/02/15 06:45:50;;;;;;;3.40;3.30;;;;;;;4.44;95.38;100507.84;6006948;23;20084;-71
2022/02/15 06:48:17;;;;;;;4.68;4.47;;;;;;;4.25;95.23;100483.28;6031029;23;20046;-72
2022/02/15 06:50:44;;;;;;;3.05;2.95;;;;;;;4.58;95.63;100542.06;5987442;23;20047;-72
2022/02/15 06:53:10;;;;;;;4.65;4.45;;;;;;;4.78;95.62;100569.22;6002891;23;20026;-72
2022/02/15 06:55:56;;;;;;;3.28;3.17;;;;;;;4.31;94.43;100481.38;6032232;23;20523;-72
2022/02/15 06:58:27;;;;;;;3.20;3.10;;;;;;;4.19;94.32;100476.56;5991121;23;20035;-72
2022/02/15 07:00:53;;;;;;;3.63;3.53;;;;;;;5.00;94.06;100596.25;6011190;23;20038;-72
2022/02/15 07:03:20;;;;;;;4.30;4.00;;;;;;;5.19;94.73;100617.34;6017406;23;20046;-72
2022/02/15 07:05:46;;;;;;;3.28;3.17;;;;;;;4.79;95.45;100556.16;5997866;23;20042;-72
2022/02/15 07:08:13;;;;;;;4.95;4.75;;;;;;;5.25;94.44;100623.25;6023995;23;20015;-71
2022/02/15 07:10:39;;;;;;;3.33;3.22;;;;;;;3.92;94.23;100393.38;6003897;23;20493;-72
2022/02/15 07:13:06;;;;;;;4.60;4.40;;;;;;;4.81;95.19;100543.09;5997843;23;20074;-72
2022/02/15 07:15:32;;;;;;;3.45;3.35;;;;;;;5.36;95.88;100634.19;6024338;23;20022;-73
2022/02/15 07:17:59;;;;;;;3.22;3.13;;;;;;;4.79;94.70;100539.69;5974710;23;20046;-74
2022/02/15 07:20:31;;;;;;;3.40;3.30;;;;;;;4.69;94.72;100526.16;6029388;23;20032;-73
2022/02/15 07:22:58;;;;;;;3.30;3.20;;;;;;;5.29;95.55;100617.06;6033444;23;20244;-74
2022/02/15 07:25:26;;;;;;;3.50;3.40;;;;;;;5.46;95.11;100637.34;5996031;23;20057;-73
2022/02/15 07:27:52;;;;;;;3.90;3.70;;;;;;;5.49;95.55;100640.72;6003758;23;20456;-73
2022/02/15 07:30:19;;;;;;;3.97;3.78;;;;;;;5.06;94.76;100563.16;6004145;23;20031;-73
2022/02/15 07:32:45;;;;;;;4.28;4.07;;;;;;;5.20;94.88;100598.22;6011780;23;20142;-73
2022/02/15 07:35:16;;;;;;;3.80;3.60;;;;;;;5.34;95.97;100616.00;6031853;23;20038;-73
2022/02/15 07:37:46;;;;;;;3.50;3.40;;;;;;;5.33;94.77;100611.72;6004375;23;20027;-73
2022/02/15 07:40:13;;;;;;;5.00;4.80;;;;;;;5.29;95.07;100617.06;6021918;23;20027;-73
2022/02/15 07:42:39;;;;;;;3.30;3.20;;;;;;;5.33;94.74;100618.66;6004044;23;20037;-74
2022/02/15 07:45:06;;;;;;;4.90;4.70;;;;;;;5.15;94.84;100607.06;6026089;23;20049;-74
2022/02/15 07:47:32;;;;;;;3.60;3.50;;;;;;;5.69;95.29;100694.75;6015301;23;20102;-73
2022/02/15 07:49:59;;;;;;;3.65;3.55;;;;;;;5.13;95.79;100573.31;5995300;23;20047;-74
2022/02/15 07:52:25;;;;;;;3.83;3.70;;;;;;;5.70;95.57;100678.22;6018199;23;20440;-72
2022/02/15 07:54:53;;;;;;;4.00;3.80;;;;;;;5.28;96.05;100604.97;5994795;23;20074;-73
2022/02/15 07:57:21;;;;;;;4.05;3.85;;;;;;;5.79;97.01;100669.22;6023501;23;20565;-73
2022/02/15 07:59:48;;;;;;;3.75;3.63;;;;;;;5.82;97.08;100686.53;5998312;23;20026;-72
2022/02/15 08:02:14;;;;;;;3.58;3.47;;;;;;;5.87;97.32;100677.63;6027076;23;20122;-73
2022/02/15 08:04:40;;;;;;;3.90;3.70;;;;;;;5.40;96.55;100608.00;6019624;23;20585;-72
2022/02/15 08:07:07;;;;;;;4.93;4.72;;;;;;;5.59;96.39;100630.81;5993999;23;20038;-72
2022/02/15 08:09:36;;;;;;;3.40;3.30;;;;;;;5.97;96.58;100699.94;6027861;23;20019;-71
2022/02/15 08:12:08;;;;;;;5.07;4.85;;;;;;;6.03;95.68;100698.00;5969059;23;20027;-71
2022/02/15 08:14:35;;;;;;;;;;;;;;;6.04;95.43;100700.56;6029387;23;20030;-72
2022/02/15 08:17:01;;;;;;;4.80;4.50;;;;;;;4.79;95.81;100504.16;6018251;23;19910;-71
2022/02/15 08:19:28;;;;;;;3.70;3.60;;;;;;;6.12;96.24;100708.97;5999728;23;20105;-71
2022/02/15 08:21:56;;;;;;;3.45;3.35;;;;;;;5.76;94.76;100649.34;6024487;23;20019;-73
2022/02/15 08:24:25;;;;;;;3.50;3.40;;;;;;;6.27;94.55;100712.81;6019228;23;20151;-71
2022/02/15 08:26:52;;;;;;;3.28;3.17;;;;;;;6.05;93.31;100677.97;6002385;23;20031;-71
2022/02/15 08:29:19;;;;;;;4.10;3.90;;;;;;;6.22;93.54;100693.88;6004725;23;20093;-71
2022/02/15 08:31:46;;;;;;;3.90;3.70;;;;;;;6.30;93.36;100720.53;5997178;23;20022;-71
2022/02/15 08:34:12;;;;;;;3.80;3.60;;;;;;;6.34;92.63;100723.91;6035098;23;20045;-71
2022/02/15 08:36:41;;;;;;;3.58;3.47;;;;;;;5.90;92.40;100630.66;6005406;23;20018;-71
2022/02/15 08:39:08;;;;;;;3.40;3.30;;;;;;;6.12;92.23;100661.25;6027859;23;20018;-71
2022/02/15 08:41:34;;;;;;;4.10;3.80;;;;;;;6.41;92.18;100716.72;6031021;23;20215;-71
2022/02/15 08:44:01;;;;;;;4.28;4.07;;;;;;;6.16;90.51;100699.31;6013146;23;20034;-72
2022/02/15 08:46:27;;;;;;;3.80;3.60;;;;;;;5.93;89.33;100653.16;6035402;23;20030;-71
2022/02/15 08:48:54;;;;;;;3.50;3.40;;;;;;;6.26;88.62;100731.13;5999884;23;20274;-71
2022/02/15 08:51:20;;;;;;;4.75;4.55;;;;;;;6.29;88.29;100737.06;6001406;23;20035;-73
2022/02/15 08:53:49;;;;;;;3.50;3.40;;;;;;;6.36;87.83;100730.75;5965479;23;20667;-72
2022/02/15 08:56:20;;;;;;;4.90;4.70;;;;;;;6.47;87.15;100730.38;5996863;23;20176;-71
2022/02/15 08:58:50;;;;;;;3.97;3.78;;;;;;;5.89;87.57;100634.16;5989886;23;20039;-71
2022/02/15 09:01:17;;;;;;;3.90;3.70;;;;;;;6.58;86.59;100743.06;6033937;23;20035;-71
2022/02/15 09:03:45;;;;;;;3.50;3.40;;;;;;;6.34;86.24;100672.63;6022470;23;19999;-71
2022/02/15 09:06:12;;;;;;;4.72;4.53;;;;;;;6.82;85.39;100745.72;6026190;23;20475;-71
2022/02/15 09:08:38;;;;;;;3.70;3.60;;;;;;;6.91;84.85;100745.34;6016258;23;20042;-71
2022/02/15 09:11:05;;;;;;;4.30;4.10;;;;;;;6.29;84.98;100664.09;5999329;23;20098;-71
2022/02/15 09:13:32;;;;;;;3.60;3.50;;;;;;;5.78;84.06;100631.94;6019273;23;20034;-71
2022/02/15 09:15:58;;;;;;;3.60;3.50;;;;;;;6.09;85.12;100662.16;6008393;23;20316;-74
2022/02/15 09:18:25;;;;;;;3.50;3.40;;;;;;;6.25;84.66;100693.78;6007327;23;20238;-73
2022/02/15 09:20:51;;;;;;;3.85;3.65;;;;;;;6.01;84.13;100653.78;5989011;23;20046;-68
2022/02/15 09:23:21;;;;;;;3.90;3.70;;;;;;;6.69;85.19;100764.38;6020610;23;20026;-68
2022/02/15 09:25:47;;;;;;;3.63;3.53;;;;;;;6.69;85.07;100766.13;6006712;23;20046;-72
2022/02/15 09:28:14;;;;;;;5.00;4.80;;;;;;;6.61;83.77;100763.78;6021791;23;20048;-70
2022/02/15 09:30:40;;;;;;;3.60;3.40;;;;;;;6.59;84.30;100770.81;6039248;23;20511;-74
2022/02/15 09:33:07;;;;;;;5.10;4.90;;;;;;;6.47;84.48;100768.63;5994297;23;20556;-72
2022/02/15 09:35:51;;;;;;;3.65;3.55;;;;;;;5.92;85.14;100693.13;6028495;23;20025;-72
2022/02/15 09:38:20;;;;;;;4.65;4.45;;;;;;;6.17;84.58;100722.72;5995290;23;20617;-72
2022/02/15 09:40:49;;;;;;;3.85;3.65;;;;;;;6.37;84.79;100736.81;5998498;23;20048;-76
2022/02/15 09:43:16;;;;;;;5.10;4.90;;;;;;;6.57;83.78;100785.66;5995606;23;20022;-71
2022/02/15 09:45:45;;;;;;;3.78;3.58;;;;;;;6.71;83.47;100780.81;6034232;23;20054;-69
2022/02/15 09:48:13;;;;;;;5.95;5.68;;;;;;;6.78;83.24;100786.69;6016552;23;20865;-70
2022/02/15 09:50:40;;;;;;;3.28;3.17;;;;;;;6.70;82.36;100788.72;5988677;23;20203;-68
2022/02/15 09:53:07;;;;;;;5.55;5.30;;;;;;;6.84;83.11;100777.81;6020431;23;20198;-70
2022/02/15 09:55:34;;;;;;;3.40;3.30;;;;;;;6.73;83.26;100741.66;6024649;23;20042;-69
2022/02/15 09:58:01;;;;;;;3.67;3.55;;;;;;;6.81;83.48;100712.69;6025258;23;20070;-70
2022/02/15 10:00:28;;;;;;;4.10;3.80;;;;;;;7.41;82.26;100792.22;5987721;23;20058;-67
2022/02/15 10:02:57;;;;;;;4.07;3.88;;;;;;;6.98;81.34;100699.88;6010148;23;20059;-67
2022/02/15 10:05:31;;;;;;;3.95;3.83;;;;;;;7.58;80.34;100784.63;5981055;23;20026;-69
2022/02/15 10:07:57;;;;;;;4.70;4.40;;;;;;;7.55;80.12;100779.50;5995680;23;20459;-68
2022/02/15 10:10:32;;;;;;;3.80;3.67;;;;;;;7.58;78.66;100795.06;6019426;23;20019;-68
2022/02/15 10:13:04;;;;;;;4.90;3.83;;;;;;;7.70;78.91;100793.75;6022428;23;20081;-67
2022/02/15 10:15:37;;;;;;;5.35;5.05;;;;;;;7.73;79.00;100798.84;6017117;23;20133;-69
2022/02/15 10:18:14;;;;;;;3.70;3.60;;;;;;;7.77;79.27;100803.03;5986814;23;20031;-69
2022/02/15 10:20:43;;;;;;;5.07;4.80;;;;;;;7.65;78.16;100781.78;5996188;23;20609;-68
2022/02/15 10:23:18;;;;;;;3.55;3.45;;;;;;;7.73;78.45;100819.72;6010687;23;20407;-70
2022/02/15 10:25:45;;;;;;;4.68;4.43;;;;;;;6.56;78.35;100614.50;5989880;23;20114;-68
2022/02/15 10:28:20;;;;;;;3.67;3.58;;;;;;;7.62;77.99;100808.00;6023557;23;20103;-68
2022/02/15 10:30:52;;;;;;;3.80;3.70;;;;;;;7.76;78.46;100818.78;6019381;23;21009;-68
2022/02/15 10:33:21;;;;;;;4.07;3.80;;;;;;;7.44;77.47;100755.56;6020895;23;20094;-68
2022/02/15 10:35:53;;;;;;;4.45;4.25;;;;;;;7.91;77.53;100823.41;6027691;23;20033;-68
2022/02/15 10:38:43;;;;;;;4.00;3.80;;;;;;;6.66;76.48;100634.09;6016204;23;20023;-68
2022/02/15 10:41:12;;;;;;;3.60;3.50;;;;;;;7.91;74.84;100817.31;5990924;23;20038;-68
2022/02/15 10:43:51;;;;;;;5.65;5.35;;;;;;;7.73;72.79;100826.72;6017140;23;20033;-68
2022/02/15 10:46:26;;;;;;;4.10;3.90;;;;;;;7.13;72.85;100708.88;6017038;23;20058;-68
2022/02/15 10:48:54;;;;;;;3.65;3.55;;;;;;;8.34;71.72;100816.47;6015103;23;20010;-67
2022/02/15 10:51:22;;;;;;;4.03;3.83;;;;;;;8.63;69.10;100826.66;6013570;23;20057;-67
2022/02/15 10:53:58;;;;;;;3.70;3.60;;;;;;;8.16;68.26;100815.44;5983997;23;20162;-67
2022/02/15 10:56:33;;;;;;;4.32;4.13;;;;;;;8.33;67.36;100840.91;6010040;23;20027;-66
2022/02/15 10:59:04;;;;;;;4.10;3.90;;;;;;;7.89;66.89;100693.72;5986102;23;20035;-67
2022/02/15 11:01:33;;;;;;;4.93;4.72;;;;;;;9.18;64.14;100832.13;6006114;23;20038;-67
2022/02/15 11:04:02;;;;;;;3.97;3.80;;;;;;;8.40;63.13;100739.53;6013853;23;20093;-67
2022/02/15 11:06:29;;;;;;;5.13;4.93;;;;;;;8.98;64.28;100833.88;5996592;23;20043;-66
2022/02/15 11:08:58;;;;;;;3.80;3.70;;;;;;;8.68;64.18;100770.63;6018437;23;20325;-67
2022/02/15 11:11:26;;;;;;;4.43;4.22;;;;;;;9.46;63.54;100837.00;6012579;23;20034;-68
2022/02/15 11:13:55;;;;;;;4.22;4.03;;;;;;;8.82;62.72;100831.94;5986369;23;20027;-68
2022/02/15 11:16:22;;;;;;;4.15;3.95;;;;;;;8.68;63.67;100775.84;5994623;23;20484;-67
2022/02/15 11:18:49;;;;;;;3.80;3.70;;;;;;;8.94;62.55;100808.75;5969726;23;20410;-67
2022/02/15 11:21:24;;;;;;;4.20;4.00;;;;;;;9.15;61.87;100814.78;5992180;23;20114;-68
2022/02/15 11:23:59;;;;;;;3.90;3.75;;;;;;;8.65;63.15;100814.38;6018295;23;20007;-69
2022/02/15 11:26:33;;;;;;;4.22;4.05;;;;;;;9.02;62.45;100816.25;5998216;23;20038;-67
2022/02/15 11:29:00;;;;;;;3.72;3.63;;;;;;;9.43;61.67;100813.53;6022104;23;20016;-67
2022/02/15 11:31:32;;;;;;;4.40;4.20;;;;;;;8.86;59.71;100805.59;6016883;23;20310;-68
2022/02/15 11:34:04;;;;;;;5.32;5.05;;;;;;;8.51;62.49;100760.84;5991140;23;20031;-68
2022/02/15 11:36:31;;;;;;;5.57;5.32;;;;;;;8.03;62.80;100748.03;6017929;23;20500;-69
2022/02/15 11:39:20;;;;;;;3.80;3.70;;;;;;;7.77;62.13;100773.44;6021027;23;20038;-69
2022/02/15 11:41:58;;;;;;;4.10;3.90;;;;;;;7.76;63.58;100813.56;5994179;23;20043;-68